• Join FlightAware (Why Join?)
  • Login
  • US Flag 
10:19PM EDT


 

Airport Tracker/Info


-or-


 

Live Flight TrackerFlight Track Log ✈ UCA3598 ✈ 16-Nov-2013 ✈ KIAD - KBGM

Flight Track Log - Related Links

Times and Time Zones

All times are in EST time to prevent confusion due to time zone crossing. See the UCA3598 flight status page for this flight to view local times or setup timezone preferences in your user account.

Time Position Orientation Groundspeed Altitude Reporting Facility
EST Latitude Longitude Course Direction KTS MPH feet Rate Location/Type
10:19PM 38.9500 -77.5333 303° West 156 180 2,200  Level Potomac TRACON
10:20PM 38.9667 -77.5667 303° West 191 220 3,500 1,320 Climbing Potomac TRACON
10:21PM 39.0167 -77.5833 345° North 213 245 4,600 1,200 Climbing Potomac TRACON
10:22PM 39.0833 -77.5667 11° North 221 254 5,800 1,260 Climbing Potomac TRACON
10:23PM 39.1500 -77.5500 11° North 220 253 7,200 1,380 Climbing Potomac TRACON
10:24PM 39.2000 -77.5333 14° North 212 244 8,600 1,320 Climbing Potomac TRACON
10:25PM 39.2667 -77.5333 360° North 212 244 9,900 1,140 Climbing Potomac TRACON
10:27PM 39.3839 -77.5061 10° North 217 250 12,400 900 Climbing Washington Center
10:28PM 39.4467 -77.4942 North 217 250 13,000 900 Climbing Washington Center
10:29PM 39.5114 -77.4800 10° North 229 264 14,300 1,260 Climbing Washington Center
10:30PM 39.5761 -77.4681 North 235 270 15,600 1,260 Climbing Washington Center
10:31PM 39.6408 -77.4564 North 235 270 16,800 1,200 Climbing Washington Center
10:32PM 39.7033 -77.4553 North 235 270 18,000 900 Climbing Washington Center
10:33PM 39.7975 -77.4453 North 234 269 19,000 420 Climbing New York Center
10:34PM 39.8600 -77.4106 23° Northeast 251 289 19,000  Level New York Center
10:35PM 39.9417 -77.3669 22° Northeast 280 322 19,000  Level New York Center
10:36PM 40.0125 -77.3275 23° Northeast 292 336 19,000  Level New York Center
10:37PM 40.0961 -77.2864 21° North 292 336 19,000  Level New York Center
10:38PM 40.1650 -77.2467 24° Northeast 297 342 19,000  Level New York Center
10:39PM 40.2511 -77.2003 22° Northeast 297 342 19,000  Level New York Center
10:40PM 40.3197 -77.1658 21° North 297 342 19,000  Level New York Center
10:41PM 40.4056 -77.1167 24° Northeast 302 348 19,000  Level New York Center
10:42PM 40.4764 -77.0794 22° Northeast 302 348 19,000  Level New York Center
10:43PM 40.5622 -77.0325 23° Northeast 302 348 19,000  Level New York Center
10:44PM 40.6333 -76.9925 23° Northeast 302 348 19,000  Level New York Center
10:45PM 40.7211 -76.9458 22° Northeast 302 348 19,000  Level New York Center
10:46PM 40.7919 -76.9083 22° Northeast 302 348 19,000 -600 Level New York Center
10:47PM 40.8797 -76.8614 22° Northeast 309 356 17,900 -960 Descending New York Center
10:48PM 40.9592 -76.8133 25° Northeast 309 356 17,100 -960 Descending New York Center
10:49PM 41.0428 -76.7686 22° Northeast 309 356 16,000 -1,140 Descending New York Center
10:50PM 41.1264 -76.7236 22° Northeast 309 356 14,900 -1,140 Descending New York Center
10:51PM 41.2058 -76.6781 23° Northeast 309 356 13,800 -960 Descending New York Center
10:52PM 41.2872 -76.6300 24° Northeast 309 356 13,000 -360 Descending New York Center
10:53PM 41.3600 -76.5894 23° Northeast 299 344 13,100  Climbing New York Center
10:54PM 41.4267 -76.5508 23° Northeast 289 333 13,100  Level New York Center
10:55PM 41.5078 -76.5081 22° Northeast 279 321 13,100 -300 Level New York Center
10:56PM 41.5806 -76.4672 23° Northeast 284 327 12,500 -900 Descending New York Center
10:57PM 41.6575 -76.4236 23° Northeast 290 334 11,400 -1,080 Descending New York Center
10:58PM 41.7261 -76.3822 24° Northeast 290 334 10,400 -1,140 Descending New York Center
10:59PM 41.7936 -76.3239 33° Northeast 290 334 9,200 -1,200 Descending New York Center
11:00PM 41.8694 -76.2606 32° Northeast 284 327 8,000 -1,200 Descending New York Center
11:01PM 41.9364 -76.2075 31° Northeast 284 327 6,900 -1,140 Descending New York Center
11:02PM 42.0056 -76.1519 31° Northeast 284 327 5,800 -1,020 Descending New York Center
11:03PM 42.0717 -76.1125 24° Northeast 284 327 4,900 -780 Descending New York Center
11:04PM 42.1419 -76.0819 18° North 272 313 4,300 -600 Descending New York Center
11:05PM 42.2025 -76.0756 North 245 282 3,700 -720 Descending New York Center
11:06PM 42.2453 -76.0511 23° Northeast 202 232 2,900 -780 Descending New York Center
11:07PM 42.2408 -76.0086 98° East 115 132 2,200 -420 Descending New York Center
11:08PM 42.2633 -75.9711 51° Northeast 106 122 2,100 -120 Descending New York Center